Time;durP1;ratioP1;P1;durP2;ratioP2;P2;SDS_P1;SDS_P2;PMS_P1;PMS_P2;Temp;Humidity;BMP_temperature;BMP_pressure;BME280_temperature;BME280_humidity;BME280_pressure;Samples;Min_cycle;Max_cycle;Signal;HPM_P1;HPM_P2
2022/07/28 00:01:50;;;;;;;0.20;0.20;;;22.90;58.50;;;;;;4938853;28;20577;-20
2022/07/28 00:04:16;;;;;;;0.43;0.40;;;22.90;58.50;;;;;;4953235;28;20096;-20
2022/07/28 00:06:41;;;;;;;0.50;0.50;;;22.90;58.60;;;;;;4940824;28;20047;-20
2022/07/28 00:09:07;;;;;;;0.28;0.28;;;22.80;58.40;;;;;;4938441;28;20043;-20
2022/07/28 00:11:32;;;;;;;0.20;0.20;;;22.80;58.40;;;;;;4937899;28;20046;-20
2022/07/28 00:13:58;;;;;;;0.20;0.20;;;22.90;58.50;;;;;;4939019;28;20066;-20
2022/07/28 00:16:23;;;;;;;0.20;0.20;;;22.80;58.50;;;;;;4937928;28;20047;-28
2022/07/28 00:18:49;;;;;;;0.20;0.20;;;22.80;58.40;;;;;;4934552;28;20048;-20
2022/07/28 00:21:15;;;;;;;0.30;0.20;;;22.90;58.40;;;;;;4936987;28;20051;-20
2022/07/28 00:23:40;;;;;;;0.20;0.20;;;22.90;58.50;;;;;;4939878;28;20058;-21
2022/07/28 00:26:07;;;;;;;0.20;0.17;;;22.90;58.50;;;;;;4935408;28;20063;-21
2022/07/28 00:28:33;;;;;;;0.20;0.20;;;22.80;58.40;;;;;;4941818;28;20101;-20
2022/07/28 00:30:58;;;;;;;0.10;0.10;;;22.90;58.40;;;;;;4937259;28;20131;-19
2022/07/28 00:33:24;;;;;;;0.13;0.13;;;22.90;58.40;;;;;;4938579;28;20818;-21
2022/07/28 00:35:49;;;;;;;0.17;0.17;;;22.90;58.50;;;;;;4935321;28;20047;-21
2022/07/28 00:38:15;;;;;;;0.20;0.20;;;22.90;58.50;;;;;;4937963;28;20052;-19
2022/07/28 00:43:25;;;;;;;0.20;0.20;;;22.80;58.50;;;;;;4938792;28;20896;-20
2022/07/28 00:45:50;;;;;;;0.10;0.10;;;22.80;59.20;;;;;;4939030;28;20051;-20
2022/07/28 00:48:16;;;;;;;2.47;0.15;;;22.90;58.60;;;;;;4935417;28;20708;-20
2022/07/28 00:50:41;;;;;;;0.30;0.30;;;22.80;58.50;;;;;;4937754;28;20142;-20
2022/07/28 00:53:07;;;;;;;0.20;0.20;;;22.80;58.50;;;;;;4935932;28;20059;-20
2022/07/28 00:55:32;;;;;;;0.35;0.30;;;22.90;58.60;;;;;;4940006;28;20047;-19
2022/07/28 00:57:59;;;;;;;0.20;0.20;;;22.90;58.50;;;;;;4939128;28;20133;-20
2022/07/28 01:00:25;;;;;;;0.43;0.22;;;22.80;58.60;;;;;;4938673;28;20514;-20
2022/07/28 01:02:50;;;;;;;0.20;0.20;;;22.90;58.60;;;;;;4939258;28;20138;-20
2022/07/28 01:05:16;;;;;;;0.30;0.20;;;22.90;58.60;;;;;;4938473;28;20748;-19
2022/07/28 01:08:15;;;;;;;0.20;0.20;;;22.80;58.50;;;;;;4948802;28;20330;-20
2022/07/28 01:11:03;;;;;;;0.20;0.20;;;22.80;58.60;;;;;;4934575;28;20098;-20
2022/07/28 01:13:45;;;;;;;0.20;0.20;;;22.90;58.60;;;;;;4936139;28;20059;-19
2022/07/28 01:16:11;;;;;;;0.20;0.20;;;22.80;58.70;;;;;;4949980;28;20075;-19
2022/07/28 01:18:55;;;;;;;0.10;0.10;;;22.80;58.70;;;;;;4932618;28;20481;-21
2022/07/28 01:21:24;;;;;;;;;;;22.80;58.70;;;;;;5040144;28;20044;-21
2022/07/28 01:24:26;;;;;;;0.10;0.10;;;22.80;58.70;;;;;;5038512;28;19909;-19
2022/07/28 01:27:09;;;;;;;0.60;0.28;;;22.70;58.70;;;;;;5028103;28;20504;-19
2022/07/28 01:29:59;;;;;;;0.13;0.13;;;22.80;58.80;;;;;;4937055;28;20041;-22
2022/07/28 01:32:26;;;;;;;0.20;0.20;;;22.70;59.00;;;;;;4939474;28;20554;-23
2022/07/28 01:35:10;;;;;;;0.20;0.20;;;22.70;59.00;;;;;;4940192;28;20055;-20
2022/07/28 01:37:40;;;;;;;0.38;0.20;;;22.70;59.10;;;;;;4942813;28;20498;-20
2022/07/28 01:40:06;;;;;;;0.20;0.20;;;22.70;59.10;;;;;;4954343;28;20046;-22
2022/07/28 01:42:38;;;;;;;0.20;0.20;;;22.70;59.10;;;;;;4938595;28;20054;-21
2022/07/28 01:45:04;;;;;;;0.65;0.52;;;22.60;59.20;;;;;;4989235;28;20083;-20
2022/07/28 01:47:30;;;;;;;0.22;0.22;;;22.70;59.20;;;;;;4920810;29;20047;-19
2022/07/28 01:49:57;;;;;;;0.40;0.30;;;22.70;59.10;;;;;;4939015;28;20040;-20
2022/07/28 01:52:22;;;;;;;0.47;0.47;;;22.60;59.40;;;;;;4939283;28;20048;-20
2022/07/28 01:54:48;;;;;;;0.40;0.40;;;22.60;59.20;;;;;;4930839;28;20047;-20
2022/07/28 01:57:14;;;;;;;0.50;0.50;;;22.60;59.40;;;;;;4940171;28;20058;-20
2022/07/28 01:59:39;;;;;;;0.43;0.43;;;22.60;59.10;;;;;;4942731;28;20031;-20
2022/07/28 02:02:05;;;;;;;0.50;0.50;;;22.60;59.20;;;;;;4930308;28;20044;-20
2022/07/28 02:04:32;;;;;;;0.50;0.50;;;22.60;59.40;;;;;;4943971;28;20073;-23
2022/07/28 02:06:57;;;;;;;0.40;0.40;;;22.50;59.50;;;;;;4940946;28;20050;-21
2022/07/28 02:09:23;;;;;;;0.40;0.40;;;22.60;59.50;;;;;;4939844;28;20048;-22
2022/07/28 02:11:50;;;;;;;0.47;0.47;;;22.60;59.40;;;;;;4940723;28;20071;-19
2022/07/28 02:14:20;;;;;;;0.52;0.52;;;22.60;59.30;;;;;;4936234;28;20032;-22
2022/07/28 02:16:48;;;;;;;0.57;0.57;;;22.60;59.20;;;;;;4937086;28;20130;-22
2022/07/28 02:19:14;;;;;;;0.57;0.57;;;22.60;59.10;;;;;;4940991;28;20046;-19
2022/07/28 02:21:39;;;;;;;0.52;0.52;;;22.60;59.10;;;;;;4937269;29;20039;-20
2022/07/28 02:24:06;;;;;;;0.43;0.43;;;22.50;59.10;;;;;;4940389;28;20513;-19
2022/07/28 02:26:37;;;;;;;0.50;0.50;;;22.60;59.10;;;;;;4936457;28;20067;-20
2022/07/28 02:29:03;;;;;;;0.60;0.60;;;22.60;59.00;;;;;;4939430;28;20043;-20
2022/07/28 02:31:51;;;;;;;0.70;0.70;;;22.60;58.80;;;;;;4943860;28;20047;-21
2022/07/28 02:34:16;;;;;;;0.50;0.50;;;22.60;59.00;;;;;;4935187;28;20039;-20
2022/07/28 02:36:45;;;;;;;0.55;0.55;;;22.60;59.00;;;;;;4937878;28;20052;-20
2022/07/28 02:39:17;;;;;;;0.68;0.68;;;22.60;59.00;;;;;;4928845;28;20039;-20
2022/07/28 02:41:43;;;;;;;0.75;0.60;;;22.60;58.90;;;;;;4940755;28;20110;-20
2022/07/28 02:44:13;;;;;;;1.10;0.50;;;22.60;58.90;;;;;;4938286;28;20157;-19
2022/07/28 02:46:42;;;;;;;0.70;0.40;;;22.60;58.90;;;;;;4930502;28;20513;-20
2022/07/28 02:49:11;;;;;;;0.30;0.30;;;22.60;58.80;;;;;;4936872;28;20054;-20
2022/07/28 02:51:36;;;;;;;0.50;0.50;;;22.60;59.00;;;;;;4941194;28;20047;-20
2022/07/28 02:54:02;;;;;;;0.60;0.60;;;22.50;59.00;;;;;;4938397;28;20032;-19
2022/07/28 02:56:28;;;;;;;0.77;0.50;;;22.50;59.00;;;;;;4943338;28;20047;-20
2022/07/28 02:58:53;;;;;;;0.55;0.50;;;22.50;59.00;;;;;;4929077;28;20101;-19
2022/07/28 03:01:19;;;;;;;0.50;0.50;;;22.50;59.00;;;;;;4941255;28;20036;-20
2022/07/28 03:03:48;;;;;;;0.40;0.40;;;22.50;58.90;;;;;;4941717;28;21201;-20
2022/07/28 03:06:16;;;;;;;0.38;0.38;;;22.50;59.00;;;;;;4939978;28;20509;-20
2022/07/28 03:08:42;;;;;;;0.50;0.50;;;22.50;59.00;;;;;;4942626;28;20043;-21
2022/07/28 03:11:12;;;;;;;0.82;0.82;;;22.50;59.00;;;;;;4941407;28;20539;-20
2022/07/28 03:13:37;;;;;;;0.55;0.55;;;22.50;58.90;;;;;;4940779;28;20138;-20
2022/07/28 03:16:04;;;;;;;0.40;0.40;;;22.50;59.00;;;;;;4945726;28;20529;-20
2022/07/28 03:18:29;;;;;;;0.50;0.50;;;22.50;59.00;;;;;;4941398;28;20062;-20
2022/07/28 03:20:55;;;;;;;0.50;0.50;;;22.50;58.90;;;;;;4941652;28;20047;-19
2022/07/28 03:23:27;;;;;;;0.50;0.50;;;22.50;58.80;;;;;;4936494;28;20131;-20
2022/07/28 03:25:53;;;;;;;0.52;0.52;;;22.50;59.00;;;;;;4938568;28;20047;-19
2022/07/28 03:28:19;;;;;;;0.40;0.40;;;22.50;59.10;;;;;;4941848;28;20051;-20
2022/07/28 03:30:51;;;;;;;0.47;0.40;;;22.50;59.00;;;;;;4940999;28;20046;-19
2022/07/28 03:33:16;;;;;;;0.40;0.40;;;22.50;58.90;;;;;;4940149;28;20062;-20
2022/07/28 03:35:44;;;;;;;0.50;0.50;;;22.50;59.00;;;;;;4939250;28;20036;-19
2022/07/28 03:38:12;;;;;;;0.38;0.32;;;22.40;59.00;;;;;;4944974;28;20438;-20
2022/07/28 03:40:37;;;;;;;0.30;0.30;;;22.40;59.10;;;;;;4945477;28;20582;-20
2022/07/28 03:43:06;;;;;;;0.50;0.30;;;22.40;58.90;;;;;;4927207;28;20048;-20
2022/07/28 03:45:31;;;;;;;0.40;0.40;;;22.40;59.00;;;;;;5010778;28;20054;-20
2022/07/28 03:47:57;;;;;;;0.40;0.32;;;22.40;59.10;;;;;;5017373;28;20029;-20
2022/07/28 03:50:27;;;;;;;0.30;0.30;;;22.40;59.00;;;;;;5046009;28;20052;-20
2022/07/28 03:52:53;;;;;;;0.30;0.30;;;22.40;59.00;;;;;;4969459;28;20039;-20
2022/07/28 03:55:18;;;;;;;0.40;0.40;;;22.40;59.00;;;;;;5006747;28;20487;-20
2022/07/28 03:57:44;;;;;;;1.80;0.50;;;22.50;59.00;;;;;;5009015;28;20068;-21
2022/07/28 04:00:10;;;;;;;0.47;0.47;;;22.50;59.10;;;;;;5035091;28;20041;-20
2022/07/28 04:02:36;;;;;;;0.45;0.40;;;22.40;59.00;;;;;;5001196;28;20365;-21
2022/07/28 04:05:02;;;;;;;0.50;0.50;;;22.40;59.00;;;;;;5037408;28;20459;-20
2022/07/28 04:07:27;;;;;;;0.50;0.50;;;22.40;58.90;;;;;;5024364;28;20517;-19
2022/07/28 04:09:53;;;;;;;0.63;0.47;;;22.50;58.90;;;;;;5012994;28;20069;-19
2022/07/28 04:12:18;;;;;;;0.30;0.30;;;22.50;58.90;;;;;;4992197;28;20423;-19
2022/07/28 04:14:44;;;;;;;0.38;0.38;;;22.40;59.00;;;;;;4967560;28;20059;-19
2022/07/28 04:17:09;;;;;;;0.30;0.30;;;22.40;58.90;;;;;;5036345;28;20060;-20
2022/07/28 04:19:35;;;;;;;0.40;0.40;;;22.40;59.00;;;;;;5003456;28;20053;-20
2022/07/28 04:22:00;;;;;;;0.40;0.40;;;22.40;59.00;;;;;;4995840;28;20033;-19
2022/07/28 04:24:26;;;;;;;0.43;0.43;;;22.40;59.00;;;;;;4982858;28;20055;-20
2022/07/28 04:26:52;;;;;;;0.45;0.45;;;22.40;58.90;;;;;;5011998;28;20030;-21
2022/07/28 04:29:17;;;;;;;0.50;0.45;;;22.40;59.00;;;;;;5040381;28;20498;-24
2022/07/28 04:31:43;;;;;;;0.28;0.28;;;22.40;59.00;;;;;;5038509;28;20143;-21
2022/07/28 04:34:09;;;;;;;0.60;0.60;;;22.40;59.00;;;;;;5035961;28;20614;-20
2022/07/28 04:36:40;;;;;;;0.50;0.50;;;22.40;58.90;;;;;;5020416;28;20429;-20
2022/07/28 04:39:06;;;;;;;0.50;0.50;;;22.40;59.00;;;;;;5020177;28;20044;-21
2022/07/28 04:41:33;;;;;;;0.28;0.28;;;22.40;59.00;;;;;;4960190;28;20037;-20
2022/07/28 04:43:59;;;;;;;0.30;0.30;;;22.40;59.00;;;;;;5038326;28;20044;-19
2022/07/28 04:46:24;;;;;;;0.40;0.40;;;22.40;59.10;;;;;;5000602;28;20110;-19
2022/07/28 04:48:50;;;;;;;0.35;0.32;;;22.40;59.00;;;;;;4969498;28;20035;-19
2022/07/28 04:51:16;;;;;;;0.50;0.50;;;22.30;59.60;;;;;;5026325;28;20517;-20
2022/07/28 04:53:42;;;;;;;0.55;0.40;;;22.30;59.00;;;;;;4974449;28;20058;-19
2022/07/28 04:56:07;;;;;;;0.52;0.43;;;22.40;59.00;;;;;;4946459;28;20075;-19
2022/07/28 04:58:33;;;;;;;0.40;0.30;;;22.40;59.60;;;;;;5043826;28;20052;-22
2022/07/28 05:00:58;;;;;;;0.45;0.45;;;22.30;59.00;;;;;;5041694;28;20037;-19
2022/07/28 05:03:24;;;;;;;0.40;0.40;;;22.40;59.00;;;;;;5029937;28;20040;-20
2022/07/28 05:05:50;;;;;;;0.40;0.40;;;22.40;58.90;;;;;;5011260;28;20454;-20
2022/07/28 05:08:15;;;;;;;0.55;0.55;;;22.30;58.90;;;;;;5037915;28;20079;-20
2022/07/28 05:10:41;;;;;;;0.32;0.32;;;22.40;59.00;;;;;;4999735;28;20049;-20
2022/07/28 05:13:06;;;;;;;0.40;0.40;;;22.30;58.90;;;;;;5000540;28;20059;-20
2022/07/28 05:15:32;;;;;;;0.32;0.32;;;22.30;59.00;;;;;;4996552;28;20537;-23
2022/07/28 05:17:58;;;;;;;0.57;0.35;;;22.30;59.00;;;;;;5039144;28;20044;-20
2022/07/28 05:20:24;;;;;;;0.20;0.20;;;22.30;59.00;;;;;;4605727;28;10000371;-19
2022/07/28 05:22:52;;;;;;;0.30;0.30;;;22.30;59.10;;;;;;5036969;28;20072;-20
2022/07/28 05:25:22;;;;;;;1.33;0.40;;;22.50;59.10;;;;;;4989519;28;20047;-19
2022/07/28 05:27:48;;;;;;;0.90;0.90;;;22.50;59.80;;;;;;4980510;28;20122;-20
2022/07/28 05:30:14;;;;;;;2.75;0.60;;;22.40;60.00;;;;;;5018332;28;20048;-19
2022/07/28 05:32:39;;;;;;;1.00;0.70;;;22.20;60.40;;;;;;4993348;28;20044;-20
2022/07/28 05:35:05;;;;;;;1.20;0.60;;;22.10;60.70;;;;;;5003366;28;20444;-19
2022/07/28 05:37:33;;;;;;;1.15;0.77;;;22.00;61.00;;;;;;5036267;28;20045;-20
2022/07/28 05:39:58;;;;;;;0.80;0.70;;;21.90;61.10;;;;;;5005422;28;20197;-19
2022/07/28 05:42:25;;;;;;;0.60;0.60;;;21.90;61.30;;;;;;5020942;28;20654;-19
2022/07/28 05:44:50;;;;;;;0.70;0.70;;;21.80;61.40;;;;;;4979279;28;20553;-20
2022/07/28 05:47:16;;;;;;;1.52;0.80;;;21.80;61.70;;;;;;4980777;28;20051;-19
2022/07/28 05:49:42;;;;;;;1.75;0.73;;;21.70;62.00;;;;;;5000421;28;20103;-19
2022/07/28 05:52:07;;;;;;;0.70;0.70;;;21.60;62.50;;;;;;4999518;28;20094;-20
2022/07/28 05:54:33;;;;;;;1.88;1.10;;;21.60;62.50;;;;;;5032330;28;20052;-22
2022/07/28 05:56:58;;;;;;;0.95;0.60;;;21.60;62.60;;;;;;5036453;28;20454;-19
2022/07/28 05:59:24;;;;;;;0.90;0.70;;;21.50;62.70;;;;;;5029553;28;20132;-19
2022/07/28 06:01:49;;;;;;;1.70;1.08;;;21.50;62.90;;;;;;4978556;28;20075;-20
2022/07/28 06:04:15;;;;;;;0.85;0.70;;;21.50;63.10;;;;;;4976591;28;20049;-20
2022/07/28 06:06:40;;;;;;;1.15;0.77;;;21.50;63.20;;;;;;4994427;28;20048;-20
2022/07/28 06:09:06;;;;;;;3.42;0.88;;;21.40;63.40;;;;;;4961468;28;20108;-20
2022/07/28 06:11:31;;;;;;;1.23;0.60;;;21.40;63.90;;;;;;5034018;28;20515;-20
2022/07/28 06:13:57;;;;;;;2.00;0.73;;;21.40;63.90;;;;;;5005050;28;20126;-20
2022/07/28 06:16:23;;;;;;;0.80;0.68;;;21.40;64.10;;;;;;4982405;28;20100;-21
2022/07/28 06:18:49;;;;;;;3.03;0.80;;;21.40;64.00;;;;;;5008384;28;20060;-19
2022/07/28 06:21:15;;;;;;;0.70;0.70;;;21.40;64.20;;;;;;4996030;28;20049;-22
2022/07/28 06:23:40;;;;;;;1.90;0.93;;;21.40;65.20;;;;;;4998741;28;20107;-20
2022/07/28 06:26:06;;;;;;;1.08;0.60;;;21.40;64.50;;;;;;4959861;28;20054;-20
2022/07/28 06:28:31;;;;;;;2.05;0.80;;;21.30;64.70;;;;;;5018380;28;20041;-20
2022/07/28 06:30:57;;;;;;;1.45;0.68;;;21.30;65.10;;;;;;5009683;28;20399;-20
2022/07/28 06:33:22;;;;;;;2.70;1.15;;;21.30;65.10;;;;;;5035804;28;20120;-20
2022/07/28 06:35:48;;;;;;;1.20;1.00;;;21.20;65.40;;;;;;4994227;28;20045;-20
2022/07/28 06:38:14;;;;;;;1.75;0.90;;;21.30;65.50;;;;;;5036357;28;20044;-19
2022/07/28 06:40:40;;;;;;;1.67;0.70;;;21.10;66.10;;;;;;4985611;28;20446;-20
2022/07/28 06:43:07;;;;;;;2.20;0.57;;;21.20;65.90;;;;;;4987316;28;20029;-19
2022/07/28 06:45:32;;;;;;;1.05;0.80;;;21.20;66.00;;;;;;4944468;28;20036;-20
2022/07/28 06:47:58;;;;;;;1.00;0.73;;;21.20;66.30;;;;;;5012163;28;20033;-21
2022/07/28 06:50:24;;;;;;;1.25;0.70;;;21.20;66.20;;;;;;5039401;28;20041;-20
2022/07/28 06:52:49;;;;;;;1.25;0.60;;;21.20;66.00;;;;;;5018480;28;20039;-20
2022/07/28 06:55:15;;;;;;;1.98;0.60;;;21.30;65.80;;;;;;4984481;28;20169;-20
2022/07/28 06:57:42;;;;;;;1.40;0.60;;;21.30;65.50;;;;;;5038766;28;20045;-24
2022/07/28 07:00:09;;;;;;;1.23;0.30;;;21.30;65.10;;;;;;5040320;28;20044;-20
2022/07/28 07:02:39;;;;;;;0.73;0.40;;;21.40;64.90;;;;;;5036332;28;20037;-21
2022/07/28 07:05:05;;;;;;;1.75;0.63;;;21.40;64.60;;;;;;4995578;28;20076;-19
2022/07/28 07:07:31;;;;;;;0.45;0.45;;;21.50;64.50;;;;;;5033381;28;20056;-20
2022/07/28 07:09:57;;;;;;;0.47;0.47;;;21.50;64.40;;;;;;5005086;28;20049;-21
2022/07/28 07:12:22;;;;;;;1.13;0.47;;;21.50;64.10;;;;;;5034458;28;20041;-19
2022/07/28 07:14:48;;;;;;;1.77;0.50;;;21.50;64.00;;;;;;4993181;28;20444;-20
2022/07/28 07:17:13;;;;;;;0.43;0.43;;;21.60;64.00;;;;;;4960891;28;20048;-20
2022/07/28 07:19:39;;;;;;;0.52;0.40;;;21.60;63.80;;;;;;5033423;28;20042;-20
2022/07/28 07:22:04;;;;;;;0.50;0.50;;;21.60;63.60;;;;;;5010597;28;20078;-20
2022/07/28 07:24:30;;;;;;;0.45;0.45;;;21.60;63.50;;;;;;5035203;28;20115;-20
2022/07/28 07:26:55;;;;;;;0.70;0.30;;;21.60;63.30;;;;;;5044479;28;20056;-20
2022/07/28 07:29:21;;;;;;;0.75;0.40;;;21.70;63.20;;;;;;5035521;28;20511;-20
2022/07/28 07:31:47;;;;;;;0.75;0.50;;;21.70;63.10;;;;;;4943386;29;20105;-20
2022/07/28 07:34:14;;;;;;;0.45;0.40;;;21.70;63.10;;;;;;4920442;28;20557;-20
2022/07/28 07:36:40;;;;;;;0.93;0.40;;;21.70;63.00;;;;;;4990035;28;20140;-20
2022/07/28 07:39:06;;;;;;;0.57;0.52;;;21.70;62.80;;;;;;5039466;28;20124;-20
2022/07/28 07:41:31;;;;;;;0.45;0.38;;;21.80;62.80;;;;;;4958767;28;20525;-20
2022/07/28 07:43:57;;;;;;;0.52;0.52;;;21.80;62.60;;;;;;5037242;28;20565;-21
2022/07/28 07:46:22;;;;;;;0.50;0.50;;;21.80;62.60;;;;;;4961979;28;20039;-19
2022/07/28 07:48:48;;;;;;;0.68;0.50;;;21.80;62.50;;;;;;4963545;28;20067;-20
2022/07/28 07:51:13;;;;;;;1.08;0.55;;;21.80;62.50;;;;;;5024611;28;20048;-20
2022/07/28 07:53:39;;;;;;;0.70;0.50;;;21.80;62.40;;;;;;4949837;28;20067;-20
2022/07/28 07:56:05;;;;;;;1.38;0.40;;;21.80;62.30;;;;;;4976028;28;20094;-20
2022/07/28 07:58:30;;;;;;;0.60;0.60;;;21.80;62.20;;;;;;4956136;28;20043;-19
2022/07/28 08:00:56;;;;;;;0.90;0.60;;;21.80;62.10;;;;;;5022079;28;20073;-20
2022/07/28 08:03:21;;;;;;;0.40;0.40;;;21.80;62.10;;;;;;4945887;28;20047;-20
2022/07/28 08:05:48;;;;;;;1.85;0.60;;;21.80;62.10;;;;;;4943353;29;20070;-19
2022/07/28 08:08:13;;;;;;;0.60;0.47;;;21.80;61.90;;;;;;4933330;28;20075;-19
2022/07/28 08:10:39;;;;;;;0.75;0.60;;;21.80;61.80;;;;;;4991188;28;20084;-22
2022/07/28 08:13:05;;;;;;;0.70;0.60;;;21.90;61.80;;;;;;4940003;28;20044;-20
2022/07/28 08:15:31;;;;;;;0.30;0.30;;;21.90;61.60;;;;;;4941266;28;20082;-20
2022/07/28 08:17:57;;;;;;;0.43;0.43;;;21.90;61.50;;;;;;4967073;28;20037;-19
2022/07/28 08:20:22;;;;;;;0.60;0.50;;;21.90;61.30;;;;;;5038229;28;20091;-19
2022/07/28 08:22:49;;;;;;;0.50;0.40;;;21.90;61.50;;;;;;4998757;28;20102;-19
2022/07/28 08:25:14;;;;;;;0.40;0.40;;;21.90;61.30;;;;;;5041508;28;20044;-20
2022/07/28 08:27:40;;;;;;;0.50;0.50;;;21.90;61.30;;;;;;5004241;28;20453;-21
2022/07/28 08:30:06;;;;;;;0.32;0.30;;;22.00;61.30;;;;;;5044061;28;20087;-22
2022/07/28 08:32:32;;;;;;;0.40;0.40;;;22.00;61.30;;;;;;4960676;28;20082;-23
2022/07/28 08:34:57;;;;;;;0.40;0.40;;;22.00;61.20;;;;;;5047617;28;20492;-20
2022/07/28 08:37:23;;;;;;;0.30;0.30;;;22.00;61.10;;;;;;5042659;28;20049;-25
2022/07/28 08:39:48;;;;;;;0.47;0.47;;;22.00;61.00;;;;;;5004865;28;20041;-19
2022/07/28 08:42:16;;;;;;;0.52;0.40;;;22.00;60.90;;;;;;5042745;28;20065;-19
2022/07/28 08:44:57;;;;;;;0.93;0.52;;;22.00;62.00;;;;;;5016975;28;20132;-21
2022/07/28 08:47:23;;;;;;;0.85;0.55;;;22.10;61.30;;;;;;5034581;28;20040;-19
2022/07/28 08:49:48;;;;;;;0.30;0.30;;;22.00;61.50;;;;;;5025366;28;20056;-20
2022/07/28 08:52:14;;;;;;;0.60;0.55;;;22.10;61.10;;;;;;4987686;28;20043;-19
2022/07/28 08:54:44;;;;;;;0.50;0.30;;;22.10;60.90;;;;;;4942609;29;20039;-19
2022/07/28 08:57:16;;;;;;;0.20;0.20;;;22.00;60.60;;;;;;4910592;29;20055;-19
2022/07/28 08:59:42;;;;;;;0.43;0.43;;;22.00;60.70;;;;;;5000512;28;20044;-19
2022/07/28 09:02:10;;;;;;;0.30;0.30;;;22.00;60.60;;;;;;5049368;28;20394;-20
2022/07/28 09:04:37;;;;;;;0.60;0.40;;;22.00;60.60;;;;;;5031267;28;20124;-19
2022/07/28 09:07:03;;;;;;;0.30;0.30;;;22.00;60.50;;;;;;4974263;28;20044;-19
2022/07/28 09:09:29;;;;;;;0.40;0.32;;;22.00;60.50;;;;;;4955061;28;20039;-20
2022/07/28 09:11:54;;;;;;;0.22;0.20;;;22.00;60.60;;;;;;5025096;28;20053;-20
2022/07/28 09:14:20;;;;;;;0.32;0.32;;;22.10;60.60;;;;;;5038308;28;20050;-20
2022/07/28 09:16:46;;;;;;;0.30;0.30;;;22.10;60.70;;;;;;4985365;28;20470;-20
2022/07/28 09:19:12;;;;;;;0.25;0.20;;;22.20;60.50;;;;;;5010274;28;20022;-19
2022/07/28 09:21:37;;;;;;;0.30;0.30;;;22.30;60.50;;;;;;5036102;28;20439;-19
2022/07/28 09:24:03;;;;;;;0.68;0.30;;;22.30;60.90;;;;;;5025464;28;20052;-20
2022/07/28 09:26:29;;;;;;;0.35;0.32;;;22.30;60.90;;;;;;4997007;28;20047;-20
2022/07/28 09:28:56;;;;;;;0.30;0.30;;;22.30;60.50;;;;;;5041982;28;20087;-20
2022/07/28 09:31:23;;;;;;;0.45;0.45;;;22.40;60.70;;;;;;5004553;28;20051;-28
2022/07/28 09:33:53;;;;;;;0.30;0.30;;;22.30;60.50;;;;;;5021816;28;20074;-20
2022/07/28 09:36:18;;;;;;;0.20;0.20;;;22.30;60.90;;;;;;4941468;29;20058;-20
2022/07/28 09:38:44;;;;;;;0.50;0.40;;;22.30;60.70;;;;;;4988631;28;20043;-20
2022/07/28 09:41:10;;;;;;;0.30;0.30;;;22.40;61.70;;;;;;4977220;28;20098;-22
2022/07/28 09:43:36;;;;;;;0.25;0.25;;;22.40;60.60;;;;;;5027756;28;20040;-20
2022/07/28 09:46:03;;;;;;;0.30;0.30;;;22.40;60.70;;;;;;5038741;28;20124;-20
2022/07/28 09:48:28;;;;;;;1.00;0.30;;;22.40;60.70;;;;;;5039789;28;20446;-19
2022/07/28 09:51:08;;;;;;;0.30;0.30;;;22.40;60.30;;;;;;5020176;28;20533;-20
2022/07/28 09:53:33;;;;;;;0.30;0.30;;;22.40;60.60;;;;;;5007122;28;20099;-20
2022/07/28 09:56:00;;;;;;;0.13;0.13;;;22.50;60.60;;;;;;4979506;28;20514;-20
2022/07/28 09:58:26;;;;;;;0.30;0.30;;;22.50;60.50;;;;;;5023616;28;20083;-20
2022/07/28 10:01:14;;;;;;;0.30;0.30;;;22.50;60.70;;;;;;4940999;28;20387;-20
2022/07/28 10:03:40;;;;;;;0.28;0.20;;;22.50;60.50;;;;;;4940058;28;20138;-20
2022/07/28 10:06:10;;;;;;;0.30;0.30;;;22.50;60.40;;;;;;4942007;28;20040;-21
2022/07/28 10:08:47;;;;;;;0.30;0.30;;;22.50;60.40;;;;;;4929803;28;20043;-19
2022/07/28 10:11:16;;;;;;;0.20;0.20;;;22.50;60.30;;;;;;4940996;28;20043;-20
2022/07/28 10:14:05;;;;;;;0.20;0.20;;;22.50;60.40;;;;;;4939683;28;20048;-19
2022/07/28 10:16:41;;;;;;;0.30;0.30;;;22.50;60.40;;;;;;4940643;28;20456;-20
2022/07/28 10:19:07;;;;;;;0.20;0.17;;;22.50;60.40;;;;;;4940873;28;20098;-20
2022/07/28 10:21:35;;;;;;;0.20;0.20;;;22.50;60.40;;;;;;4939575;28;20074;-20
2022/07/28 10:24:04;;;;;;;0.77;0.30;;;22.60;60.40;;;;;;4940011;29;20122;-20
2022/07/28 10:26:31;;;;;;;0.20;0.20;;;22.60;60.30;;;;;;4940504;28;20072;-20
2022/07/28 10:28:56;;;;;;;0.30;0.30;;;22.50;60.40;;;;;;4939423;28;20043;-19
2022/07/28 10:31:36;;;;;;;0.30;0.30;;;22.50;60.40;;;;;;4945276;29;20066;-24
2022/07/28 10:34:02;;;;;;;0.30;0.30;;;22.50;60.40;;;;;;4938623;28;20065;-21
2022/07/28 10:36:28;;;;;;;0.30;0.20;;;22.50;60.30;;;;;;4959058;28;20044;-22
2022/07/28 10:39:17;;;;;;;0.45;0.40;;;22.50;60.50;;;;;;4934417;29;20102;-20
2022/07/28 10:41:43;;;;;;;0.20;0.20;;;22.40;60.30;;;;;;4940306;28;20088;-20
2022/07/28 10:44:12;;;;;;;0.20;0.20;;;22.50;60.40;;;;;;4935704;28;20755;-20
2022/07/28 10:46:42;;;;;;;0.20;0.13;;;22.40;60.30;;;;;;4935014;28;20413;-23
2022/07/28 10:49:08;;;;;;;0.52;0.30;;;22.50;60.30;;;;;;4933867;28;20047;-20
2022/07/28 10:51:34;;;;;;;0.30;0.30;;;22.40;61.10;;;;;;4940486;28;20130;-21
2022/07/28 10:54:07;;;;;;;0.43;0.40;;;22.50;60.30;;;;;;4922481;28;20122;-20
2022/07/28 10:56:32;;;;;;;0.20;0.20;;;22.50;60.40;;;;;;4936335;28;20078;-21
2022/07/28 10:58:58;;;;;;;0.20;0.20;;;22.50;60.30;;;;;;4939602;28;20433;-20
2022/07/28 11:01:37;;;;;;;0.30;0.30;;;22.50;60.40;;;;;;4935827;28;20448;-20
2022/07/28 11:04:04;;;;;;;0.30;0.30;;;22.50;60.30;;;;;;4938452;28;20063;-26
2022/07/28 11:06:32;;;;;;;0.22;0.20;;;22.50;60.20;;;;;;4940034;28;20533;-19
2022/07/28 11:09:18;;;;;;;0.38;0.38;;;22.50;60.20;;;;;;4936503;28;20055;-19
2022/07/28 11:11:51;;;;;;;0.25;0.25;;;22.50;60.20;;;;;;4946785;28;20047;-20
2022/07/28 11:14:22;;;;;;;0.28;0.28;;;22.50;60.20;;;;;;4943529;28;20047;-19
2022/07/28 11:17:12;;;;;;;0.32;0.30;;;22.50;60.20;;;;;;4943176;28;20044;-20
2022/07/28 11:19:43;;;;;;;0.20;0.20;;;22.50;60.30;;;;;;4927135;28;20059;-21
2022/07/28 11:22:18;;;;;;;0.30;0.30;;;22.50;60.10;;;;;;4945536;28;20333;-20
2022/07/28 11:25:01;;;;;;;0.20;0.20;;;22.50;60.10;;;;;;4943566;28;20051;-20
2022/07/28 11:27:41;;;;;;;0.20;0.20;;;22.50;60.10;;;;;;4939662;28;20039;-21
2022/07/28 11:30:10;;;;;;;0.20;0.20;;;22.60;60.10;;;;;;4943996;28;20051;-19
2022/07/28 11:32:54;;;;;;;0.13;0.13;;;22.50;60.10;;;;;;4939415;28;20043;-20
2022/07/28 11:35:26;;;;;;;0.40;0.30;;;22.60;60.20;;;;;;4941881;28;20053;-19
2022/07/28 11:38:01;;;;;;;0.13;0.10;;;22.50;60.10;;;;;;4937435;28;21570;-19
2022/07/28 11:40:30;;;;;;;0.85;0.30;;;22.50;60.10;;;;;;4941279;28;20047;-19
2022/07/28 11:43:25;;;;;;;0.32;0.20;;;22.50;60.10;;;;;;4947268;28;20039;-18
2022/07/28 11:45:53;;;;;;;0.13;0.13;;;22.50;60.10;;;;;;4941696;28;20055;-19
2022/07/28 11:48:20;;;;;;;0.20;0.20;;;22.50;60.20;;;;;;4942324;28;20058;-19
2022/07/28 11:51:18;;;;;;;0.17;0.10;;;22.60;60.10;;;;;;4944201;28;20067;-19
2022/07/28 11:53:48;;;;;;;0.13;0.13;;;22.60;60.00;;;;;;4953620;28;20047;-20
2022/07/28 11:56:24;;;;;;;1.00;0.30;;;22.60;60.00;;;;;;4941179;28;20047;-20
2022/07/28 11:59:10;;;;;;;0.13;0.13;;;22.60;60.10;;;;;;4943848;28;20047;-19
2022/07/28 12:01:35;;;;;;;0.20;0.20;;;22.60;60.00;;;;;;4936053;28;20044;-22
2022/07/28 12:04:07;;;;;;;0.20;0.20;;;22.60;60.00;;;;;;4945339;28;20410;-19
2022/07/28 12:06:37;;;;;;;0.20;0.20;;;22.60;60.00;;;;;;4940173;28;20138;-19
2022/07/28 12:09:04;;;;;;;0.20;0.20;;;22.60;60.00;;;;;;4939009;28;20101;-19
2022/07/28 12:11:37;;;;;;;0.20;0.10;;;22.60;60.10;;;;;;4937622;28;20383;-19
2022/07/28 12:14:05;;;;;;;0.30;0.20;;;22.70;60.00;;;;;;4936145;28;20036;-19
2022/07/28 12:16:31;;;;;;;0.20;0.20;;;22.70;60.00;;;;;;4941049;28;20042;-19
2022/07/28 12:18:59;;;;;;;0.20;0.20;;;22.70;60.00;;;;;;4938907;28;20561;-18
2022/07/28 12:21:40;;;;;;;0.45;0.25;;;22.70;60.00;;;;;;4939008;28;20460;-18
2022/07/28 12:24:06;;;;;;;0.20;0.20;;;22.60;59.90;;;;;;4937432;28;20055;-19
2022/07/28 12:26:33;;;;;;;0.10;0.10;;;22.70;60.00;;;;;;4939158;28;20050;-19
2022/07/28 12:28:59;;;;;;;0.10;0.10;;;22.70;60.00;;;;;;4939050;28;21271;-19
2022/07/28 12:31:28;;;;;;;0.90;0.10;;;22.70;59.80;;;;;;4940496;28;20047;-19
2022/07/28 12:33:54;;;;;;;0.47;0.10;;;22.60;59.90;;;;;;4945324;28;20031;-21
2022/07/28 12:36:22;;;;;;;0.10;0.10;;;22.70;59.80;;;;;;4939763;28;20060;-19
2022/07/28 12:38:49;;;;;;;0.15;0.15;;;22.70;59.80;;;;;;4939666;28;20067;-19
2022/07/28 12:41:15;;;;;;;0.20;0.20;;;22.70;59.70;;;;;;4945477;29;20058;-19
2022/07/28 12:43:48;;;;;;;0.15;0.15;;;22.70;59.70;;;;;;4945156;28;20043;-19
2022/07/28 12:46:20;;;;;;;0.20;0.20;;;22.70;59.70;;;;;;4941643;28;20036;-19
2022/07/28 12:48:47;;;;;;;0.28;0.20;;;22.70;59.70;;;;;;4940886;28;20061;-19
2022/07/28 12:51:35;;;;;;;0.17;0.13;;;22.70;59.70;;;;;;4946552;28;20044;-19
2022/07/28 12:54:01;;;;;;;0.15;0.15;;;22.70;59.60;;;;;;4936767;28;20469;-20
2022/07/28 12:56:27;;;;;;;0.30;0.30;;;22.80;59.70;;;;;;4940746;28;20071;-19